sensor_id;sensor_type;location;lat;lon;timestamp;temperature;humidity
16327;DHT22;34812;49.846;9.610;2023-04-28T00:00:38;9.30;99.90
16327;DHT22;34812;49.846;9.610;2023-04-28T00:01:39;9.30;99.90
16327;DHT22;34812;49.846;9.610;2023-04-28T00:02:41;9.30;99.90
16327;DHT22;34812;49.846;9.610;2023-04-28T00:03:43;9.30;99.90
16327;DHT22;34812;49.846;9.610;2023-04-28T00:04:45;9.30;99.90
16327;DHT22;34812;49.846;9.610;2023-04-28T00:05:46;9.30;99.90
16327;DHT22;34812;49.846;9.610;2023-04-28T00:06:48;9.30;99.90
16327;DHT22;34812;49.846;9.610;2023-04-28T00:07:49;9.30;99.90
16327;DHT22;34812;49.846;9.610;2023-04-28T00:08:51;9.30;99.90
16327;DHT22;34812;49.846;9.610;2023-04-28T00:09:52;9.30;99.90
16327;DHT22;34812;49.846;9.610;2023-04-28T00:10:54;9.30;99.90
16327;DHT22;34812;49.846;9.610;2023-04-28T00:11:54;9.30;99.90
16327;DHT22;34812;49.846;9.610;2023-04-28T00:12:56;9.30;99.90
16327;DHT22;34812;49.846;9.610;2023-04-28T00:13:57;9.30;99.90
16327;DHT22;34812;49.846;9.610;2023-04-28T00:14:58;9.30;99.90
16327;DHT22;34812;49.846;9.610;2023-04-28T00:15:59;9.40;99.90
16327;DHT22;34812;49.846;9.610;2023-04-28T00:17:01;9.40;99.90
16327;DHT22;34812;49.846;9.610;2023-04-28T00:18:02;9.40;99.90
16327;DHT22;34812;49.846;9.610;2023-04-28T00:19:05;9.40;99.90
16327;DHT22;34812;49.846;9.610;2023-04-28T00:20:08;9.40;99.90
16327;DHT22;34812;49.846;9.610;2023-04-28T00:21:10;9.40;99.90
16327;DHT22;34812;49.846;9.610;2023-04-28T00:22:11;9.40;99.90
16327;DHT22;34812;49.846;9.610;2023-04-28T00:23:12;9.40;99.90
16327;DHT22;34812;49.846;9.610;2023-04-28T00:24:13;9.40;99.90
16327;DHT22;34812;49.846;9.610;2023-04-28T00:25:15;9.40;99.90
16327;DHT22;34812;49.846;9.610;2023-04-28T00:26:16;9.40;99.90
16327;DHT22;34812;49.846;9.610;2023-04-28T00:27:17;9.40;99.90
16327;DHT22;34812;49.846;9.610;2023-04-28T00:28:18;9.40;99.90
16327;DHT22;34812;49.846;9.610;2023-04-28T00:29:20;9.40;99.90
16327;DHT22;34812;49.846;9.610;2023-04-28T00:30:21;9.40;99.90
16327;DHT22;34812;49.846;9.610;2023-04-28T00:31:24;9.40;99.90
16327;DHT22;34812;49.846;9.610;2023-04-28T00:32:25;9.50;99.90
16327;DHT22;34812;49.846;9.610;2023-04-28T00:33:27;9.50;99.90
16327;DHT22;34812;49.846;9.610;2023-04-28T00:34:31;9.50;99.90
16327;DHT22;34812;49.846;9.610;2023-04-28T00:35:33;9.50;99.90
16327;DHT22;34812;49.846;9.610;2023-04-28T00:36:34;9.50;99.90
16327;DHT22;34812;49.846;9.610;2023-04-28T00:37:36;9.50;99.90
16327;DHT22;34812;49.846;9.610;2023-04-28T00:38:37;9.50;99.90
16327;DHT22;34812;49.846;9.610;2023-04-28T00:39:38;9.50;99.90
16327;DHT22;34812;49.846;9.610;2023-04-28T00:40:41;9.50;99.90
16327;DHT22;34812;49.846;9.610;2023-04-28T00:41:43;9.50;99.90
16327;DHT22;34812;49.846;9.610;2023-04-28T00:42:43;9.40;99.90
16327;DHT22;34812;49.846;9.610;2023-04-28T00:43:46;9.40;99.90
16327;DHT22;34812;49.846;9.610;2023-04-28T00:44:46;9.40;99.90
16327;DHT22;34812;49.846;9.610;2023-04-28T00:45:48;9.40;99.90
16327;DHT22;34812;49.846;9.610;2023-04-28T00:46:49;9.40;99.90
16327;DHT22;34812;49.846;9.610;2023-04-28T00:47:51;9.40;99.90
16327;DHT22;34812;49.846;9.610;2023-04-28T00:48:52;9.40;99.90
16327;DHT22;34812;49.846;9.610;2023-04-28T00:49:55;9.40;99.90
16327;DHT22;34812;49.846;9.610;2023-04-28T00:50:56;9.40;99.90
16327;DHT22;34812;49.846;9.610;2023-04-28T00:51:59;9.40;99.90
16327;DHT22;34812;49.846;9.610;2023-04-28T00:53:03;9.40;99.90
16327;DHT22;34812;49.846;9.610;2023-04-28T00:54:05;9.40;99.90
16327;DHT22;34812;49.846;9.610;2023-04-28T00:55:08;9.40;99.90
16327;DHT22;34812;49.846;9.610;2023-04-28T00:56:10;9.40;99.90
16327;DHT22;34812;49.846;9.610;2023-04-28T00:57:11;9.40;99.90
16327;DHT22;34812;49.846;9.610;2023-04-28T00:58:12;9.30;99.90
16327;DHT22;34812;49.846;9.610;2023-04-28T00:59:13;9.30;99.90
16327;DHT22;34812;49.846;9.610;2023-04-28T01:00:15;9.30;99.90
16327;DHT22;34812;49.846;9.610;2023-04-28T01:01:16;9.30;99.90
16327;DHT22;34812;49.846;9.610;2023-04-28T01:02:18;9.40;99.90
16327;DHT22;34812;49.846;9.610;2023-04-28T01:03:19;9.30;99.90
16327;DHT22;34812;49.846;9.610;2023-04-28T01:04:22;9.30;99.90
16327;DHT22;34812;49.846;9.610;2023-04-28T01:05:25;9.30;99.90
16327;DHT22;34812;49.846;9.610;2023-04-28T01:06:27;9.30;99.90
16327;DHT22;34812;49.846;9.610;2023-04-28T01:07:30;9.30;99.90
16327;DHT22;34812;49.846;9.610;2023-04-28T01:08:36;9.30;99.90
16327;DHT22;34812;49.846;9.610;2023-04-28T01:09:39;9.30;99.90
16327;DHT22;34812;49.846;9.610;2023-04-28T01:10:45;9.30;99.90
16327;DHT22;34812;49.846;9.610;2023-04-28T01:11:55;9.40;99.90
16327;DHT22;34812;49.846;9.610;2023-04-28T01:13:13;9.40;99.90
16327;DHT22;34812;49.846;9.610;2023-04-28T01:14:14;9.40;99.90
16327;DHT22;34812;49.846;9.610;2023-04-28T01:15:17;9.40;99.90
16327;DHT22;34812;49.846;9.610;2023-04-28T01:16:19;9.40;99.90
16327;DHT22;34812;49.846;9.610;2023-04-28T01:17:21;9.40;99.90
16327;DHT22;34812;49.846;9.610;2023-04-28T01:18:22;9.40;99.90
16327;DHT22;34812;49.846;9.610;2023-04-28T01:19:24;9.40;99.90
16327;DHT22;34812;49.846;9.610;2023-04-28T01:20:28;9.40;99.90
16327;DHT22;34812;49.846;9.610;2023-04-28T01:21:30;9.40;99.90
16327;DHT22;34812;49.846;9.610;2023-04-28T01:22:34;9.40;99.90
16327;DHT22;34812;49.846;9.610;2023-04-28T01:23:36;9.40;99.90
16327;DHT22;34812;49.846;9.610;2023-04-28T01:24:39;9.40;99.90
16327;DHT22;34812;49.846;9.610;2023-04-28T01:25:42;9.40;99.90
16327;DHT22;34812;49.846;9.610;2023-04-28T01:26:43;9.40;99.90
16327;DHT22;34812;49.846;9.610;2023-04-28T01:27:45;9.40;99.90
16327;DHT22;34812;49.846;9.610;2023-04-28T01:28:46;9.40;99.90
16327;DHT22;34812;49.846;9.610;2023-04-28T01:29:48;9.40;99.90
16327;DHT22;34812;49.846;9.610;2023-04-28T01:30:49;9.40;99.90
16327;DHT22;34812;49.846;9.610;2023-04-28T01:31:50;9.40;99.90
16327;DHT22;34812;49.846;9.610;2023-04-28T01:32:51;9.40;99.90
16327;DHT22;34812;49.846;9.610;2023-04-28T01:33:53;9.50;99.90
16327;DHT22;34812;49.846;9.610;2023-04-28T01:34:54;9.50;99.90
16327;DHT22;34812;49.846;9.610;2023-04-28T01:35:56;9.50;99.90
16327;DHT22;34812;49.846;9.610;2023-04-28T01:36:57;9.50;99.90
16327;DHT22;34812;49.846;9.610;2023-04-28T01:37:59;9.50;99.90
16327;DHT22;34812;49.846;9.610;2023-04-28T01:39:01;9.50;99.90
16327;DHT22;34812;49.846;9.610;2023-04-28T01:40:05;9.50;99.90
16327;DHT22;34812;49.846;9.610;2023-04-28T01:41:06;9.50;99.90
16327;DHT22;34812;49.846;9.610;2023-04-28T01:42:08;9.50;99.90
16327;DHT22;34812;49.846;9.610;2023-04-28T01:43:09;9.50;99.90
16327;DHT22;34812;49.846;9.610;2023-04-28T01:44:10;9.50;99.90
16327;DHT22;34812;49.846;9.610;2023-04-28T01:45:12;9.50;99.90
16327;DHT22;34812;49.846;9.610;2023-04-28T01:46:14;9.50;99.90
16327;DHT22;34812;49.846;9.610;2023-04-28T01:47:15;9.50;99.90
16327;DHT22;34812;49.846;9.610;2023-04-28T01:48:16;9.50;99.90
16327;DHT22;34812;49.846;9.610;2023-04-28T01:49:20;9.50;99.90
16327;DHT22;34812;49.846;9.610;2023-04-28T01:50:22;9.50;99.90
16327;DHT22;34812;49.846;9.610;2023-04-28T01:51:22;9.50;99.90
16327;DHT22;34812;49.846;9.610;2023-04-28T01:52:24;9.50;99.90
16327;DHT22;34812;49.846;9.610;2023-04-28T01:53:27;9.50;99.90
16327;DHT22;34812;49.846;9.610;2023-04-28T01:54:28;9.50;99.90
16327;DHT22;34812;49.846;9.610;2023-04-28T01:55:31;9.50;99.90
16327;DHT22;34812;49.846;9.610;2023-04-28T01:56:33;9.60;99.90
16327;DHT22;34812;49.846;9.610;2023-04-28T01:57:34;9.60;99.90
16327;DHT22;34812;49.846;9.610;2023-04-28T01:58:36;9.60;99.90
16327;DHT22;34812;49.846;9.610;2023-04-28T01:59:37;9.60;99.90
16327;DHT22;34812;49.846;9.610;2023-04-28T02:00:40;9.60;99.90
16327;DHT22;34812;49.846;9.610;2023-04-28T02:01:41;9.60;99.90
16327;DHT22;34812;49.846;9.610;2023-04-28T02:02:43;9.60;99.90
16327;DHT22;34812;49.846;9.610;2023-04-28T02:03:44;9.60;99.90
16327;DHT22;34812;49.846;9.610;2023-04-28T02:04:45;9.60;99.90
16327;DHT22;34812;49.846;9.610;2023-04-28T02:05:46;9.60;99.90
16327;DHT22;34812;49.846;9.610;2023-04-28T02:06:49;9.60;99.90
16327;DHT22;34812;49.846;9.610;2023-04-28T02:07:50;9.60;99.90
16327;DHT22;34812;49.846;9.610;2023-04-28T02:08:53;9.60;99.90
16327;DHT22;34812;49.846;9.610;2023-04-28T02:09:54;9.60;99.90
16327;DHT22;34812;49.846;9.610;2023-04-28T02:10:57;9.60;99.90
16327;DHT22;34812;49.846;9.610;2023-04-28T02:11:58;9.60;99.90
16327;DHT22;34812;49.846;9.610;2023-04-28T02:13:01;9.60;99.90
16327;DHT22;34812;49.846;9.610;2023-04-28T02:14:03;9.60;99.90
16327;DHT22;34812;49.846;9.610;2023-04-28T02:15:06;9.60;99.90
16327;DHT22;34812;49.846;9.610;2023-04-28T02:16:07;9.60;99.90
16327;DHT22;34812;49.846;9.610;2023-04-28T02:17:09;9.50;99.90
16327;DHT22;34812;49.846;9.610;2023-04-28T02:18:10;9.60;99.90
16327;DHT22;34812;49.846;9.610;2023-04-28T02:19:14;9.50;99.90
16327;DHT22;34812;49.846;9.610;2023-04-28T02:20:15;9.50;99.90
16327;DHT22;34812;49.846;9.610;2023-04-28T02:21:17;9.60;99.90
16327;DHT22;34812;49.846;9.610;2023-04-28T02:22:19;9.50;99.90
16327;DHT22;34812;49.846;9.610;2023-04-28T02:23:20;9.60;99.90
16327;DHT22;34812;49.846;9.610;2023-04-28T02:24:21;9.60;99.90
16327;DHT22;34812;49.846;9.610;2023-04-28T02:25:24;9.60;99.90
16327;DHT22;34812;49.846;9.610;2023-04-28T02:26:26;9.60;99.90
16327;DHT22;34812;49.846;9.610;2023-04-28T02:27:28;9.60;99.90
16327;DHT22;34812;49.846;9.610;2023-04-28T02:28:29;9.50;99.90
16327;DHT22;34812;49.846;9.610;2023-04-28T02:29:31;9.50;99.90
16327;DHT22;34812;49.846;9.610;2023-04-28T02:30:32;9.50;99.90
16327;DHT22;34812;49.846;9.610;2023-04-28T02:31:34;9.50;99.90
16327;DHT22;34812;49.846;9.610;2023-04-28T02:32:34;9.50;99.90
16327;DHT22;34812;49.846;9.610;2023-04-28T02:33:37;9.50;99.90
16327;DHT22;34812;49.846;9.610;2023-04-28T02:34:38;9.50;99.90
16327;DHT22;34812;49.846;9.610;2023-04-28T02:35:41;9.50;99.90
16327;DHT22;34812;49.846;9.610;2023-04-28T02:36:42;9.50;99.90
16327;DHT22;34812;49.846;9.610;2023-04-28T02:37:44;9.50;99.90
16327;DHT22;34812;49.846;9.610;2023-04-28T02:38:46;9.50;99.90
16327;DHT22;34812;49.846;9.610;2023-04-28T02:39:47;9.50;99.90
16327;DHT22;34812;49.846;9.610;2023-04-28T02:40:56;9.50;99.90
16327;DHT22;34812;49.846;9.610;2023-04-28T02:42:00;9.50;99.90
16327;DHT22;34812;49.846;9.610;2023-04-28T02:43:01;9.50;99.90
16327;DHT22;34812;49.846;9.610;2023-04-28T02:44:02;9.50;99.90
16327;DHT22;34812;49.846;9.610;2023-04-28T02:45:04;9.50;99.90
16327;DHT22;34812;49.846;9.610;2023-04-28T02:46:07;9.50;99.90
16327;DHT22;34812;49.846;9.610;2023-04-28T02:47:07;9.50;99.90
16327;DHT22;34812;49.846;9.610;2023-04-28T02:48:09;9.50;99.90
16327;DHT22;34812;49.846;9.610;2023-04-28T02:49:10;9.50;99.90
16327;DHT22;34812;49.846;9.610;2023-04-28T02:50:12;9.50;99.90
16327;DHT22;34812;49.846;9.610;2023-04-28T02:51:12;9.50;99.90
16327;DHT22;34812;49.846;9.610;2023-04-28T02:52:14;9.50;99.90
16327;DHT22;34812;49.846;9.610;2023-04-28T02:53:16;9.60;99.90
16327;DHT22;34812;49.846;9.610;2023-04-28T02:54:17;9.60;99.90
16327;DHT22;34812;49.846;9.610;2023-04-28T02:55:26;9.50;99.90
16327;DHT22;34812;49.846;9.610;2023-04-28T02:56:28;9.60;99.90
16327;DHT22;34812;49.846;9.610;2023-04-28T02:57:31;9.60;99.90
16327;DHT22;34812;49.846;9.610;2023-04-28T02:58:33;9.60;99.90
16327;DHT22;34812;49.846;9.610;2023-04-28T02:59:34;9.60;99.90
16327;DHT22;34812;49.846;9.610;2023-04-28T03:00:36;9.60;99.90
16327;DHT22;34812;49.846;9.610;2023-04-28T03:01:37;9.60;99.90
16327;DHT22;34812;49.846;9.610;2023-04-28T03:02:38;9.60;99.90
16327;DHT22;34812;49.846;9.610;2023-04-28T03:03:39;9.60;99.90
16327;DHT22;34812;49.846;9.610;2023-04-28T03:04:41;9.60;99.90
16327;DHT22;34812;49.846;9.610;2023-04-28T03:05:42;9.60;99.90
16327;DHT22;34812;49.846;9.610;2023-04-28T03:06:44;9.60;99.90
16327;DHT22;34812;49.846;9.610;2023-04-28T03:07:45;9.60;99.90
16327;DHT22;34812;49.846;9.610;2023-04-28T03:08:46;9.60;99.90
16327;DHT22;34812;49.846;9.610;2023-04-28T03:09:47;9.60;99.90
16327;DHT22;34812;49.846;9.610;2023-04-28T03:10:49;9.60;99.90
16327;DHT22;34812;49.846;9.610;2023-04-28T03:11:50;9.60;99.90
16327;DHT22;34812;49.846;9.610;2023-04-28T03:12:53;9.60;99.90
16327;DHT22;34812;49.846;9.610;2023-04-28T03:13:54;9.60;99.90
16327;DHT22;34812;49.846;9.610;2023-04-28T03:14:56;9.60;99.90
16327;DHT22;34812;49.846;9.610;2023-04-28T03:15:56;9.60;99.90
16327;DHT22;34812;49.846;9.610;2023-04-28T03:16:58;9.60;99.90
16327;DHT22;34812;49.846;9.610;2023-04-28T03:17:59;9.60;99.90
16327;DHT22;34812;49.846;9.610;2023-04-28T03:19:01;9.60;99.90
16327;DHT22;34812;49.846;9.610;2023-04-28T03:20:02;9.60;99.90
16327;DHT22;34812;49.846;9.610;2023-04-28T03:21:04;9.60;99.90
16327;DHT22;34812;49.846;9.610;2023-04-28T03:22:06;9.60;99.90
16327;DHT22;34812;49.846;9.610;2023-04-28T03:23:07;9.60;99.90
16327;DHT22;34812;49.846;9.610;2023-04-28T03:24:09;9.60;99.90
16327;DHT22;34812;49.846;9.610;2023-04-28T03:25:11;9.60;99.90
16327;DHT22;34812;49.846;9.610;2023-04-28T03:26:19;9.60;99.90
16327;DHT22;34812;49.846;9.610;2023-04-28T03:27:23;9.60;99.90
16327;DHT22;34812;49.846;9.610;2023-04-28T03:28:27;9.60;99.90
16327;DHT22;34812;49.846;9.610;2023-04-28T03:29:29;9.60;99.90
16327;DHT22;34812;49.846;9.610;2023-04-28T03:30:29;9.60;99.90
16327;DHT22;34812;49.846;9.610;2023-04-28T03:31:31;9.50;99.90
16327;DHT22;34812;49.846;9.610;2023-04-28T03:32:32;9.50;99.90
16327;DHT22;34812;49.846;9.610;2023-04-28T03:33:34;9.50;99.90
16327;DHT22;34812;49.846;9.610;2023-04-28T03:34:35;9.50;99.90
16327;DHT22;34812;49.846;9.610;2023-04-28T03:35:37;9.50;99.90
16327;DHT22;34812;49.846;9.610;2023-04-28T03:36:38;9.50;99.90
16327;DHT22;34812;49.846;9.610;2023-04-28T03:37:47;9.50;99.90
16327;DHT22;34812;49.846;9.610;2023-04-28T03:38:49;9.50;99.90
16327;DHT22;34812;49.846;9.610;2023-04-28T03:39:50;9.50;99.90
16327;DHT22;34812;49.846;9.610;2023-04-28T03:40:51;9.40;99.90
16327;DHT22;34812;49.846;9.610;2023-04-28T03:42:05;9.40;99.90
16327;DHT22;34812;49.846;9.610;2023-04-28T03:43:11;9.40;99.90
16327;DHT22;34812;49.846;9.610;2023-04-28T03:44:27;9.30;99.90
16327;DHT22;34812;49.846;9.610;2023-04-28T03:45:28;9.40;99.90
16327;DHT22;34812;49.846;9.610;2023-04-28T03:46:30;9.30;99.90
16327;DHT22;34812;49.846;9.610;2023-04-28T03:47:32;9.30;99.90
16327;DHT22;34812;49.846;9.610;2023-04-28T03:48:34;9.30;99.90
16327;DHT22;34812;49.846;9.610;2023-04-28T03:49:35;9.30;99.90
16327;DHT22;34812;49.846;9.610;2023-04-28T03:50:37;9.30;99.90
16327;DHT22;34812;49.846;9.610;2023-04-28T03:51:40;9.30;99.90
16327;DHT22;34812;49.846;9.610;2023-04-28T03:52:42;9.30;99.90
16327;DHT22;34812;49.846;9.610;2023-04-28T03:53:43;9.30;99.90
16327;DHT22;34812;49.846;9.610;2023-04-28T03:54:45;9.30;99.90
16327;DHT22;34812;49.846;9.610;2023-04-28T03:55:46;9.30;99.90
16327;DHT22;34812;49.846;9.610;2023-04-28T03:56:48;9.30;99.90
16327;DHT22;34812;49.846;9.610;2023-04-28T03:57:49;9.30;99.90
16327;DHT22;34812;49.846;9.610;2023-04-28T03:58:51;9.30;99.90
16327;DHT22;34812;49.846;9.610;2023-04-28T03:59:54;9.30;99.90
16327;DHT22;34812;49.846;9.610;2023-04-28T04:00:55;9.30;99.90
16327;DHT22;34812;49.846;9.610;2023-04-28T04:01:56;9.30;99.90
16327;DHT22;34812;49.846;9.610;2023-04-28T04:02:58;9.30;99.90
16327;DHT22;34812;49.846;9.610;2023-04-28T04:03:59;9.30;99.90
16327;DHT22;34812;49.846;9.610;2023-04-28T04:05:01;9.30;99.90
16327;DHT22;34812;49.846;9.610;2023-04-28T04:06:01;9.30;99.90
16327;DHT22;34812;49.846;9.610;2023-04-28T04:07:03;9.30;99.90
16327;DHT22;34812;49.846;9.610;2023-04-28T04:08:05;9.30;99.90
16327;DHT22;34812;49.846;9.610;2023-04-28T04:09:07;9.30;99.90
16327;DHT22;34812;49.846;9.610;2023-04-28T04:10:08;9.30;99.90
16327;DHT22;34812;49.846;9.610;2023-04-28T04:11:12;9.30;99.90
16327;DHT22;34812;49.846;9.610;2023-04-28T04:12:13;9.30;99.90
16327;DHT22;34812;49.846;9.610;2023-04-28T04:13:14;9.30;99.90
16327;DHT22;34812;49.846;9.610;2023-04-28T04:14:17;9.30;99.90
16327;DHT22;34812;49.846;9.610;2023-04-28T04:15:20;9.30;99.90
16327;DHT22;34812;49.846;9.610;2023-04-28T04:16:22;9.30;99.90
16327;DHT22;34812;49.846;9.610;2023-04-28T04:17:26;9.30;99.90
16327;DHT22;34812;49.846;9.610;2023-04-28T04:18:27;9.30;99.90
16327;DHT22;34812;49.846;9.610;2023-04-28T04:19:45;9.30;99.90
16327;DHT22;34812;49.846;9.610;2023-04-28T04:20:46;9.30;99.90
16327;DHT22;34812;49.846;9.610;2023-04-28T04:21:49;9.30;99.90
16327;DHT22;34812;49.846;9.610;2023-04-28T04:22:50;9.30;99.90
16327;DHT22;34812;49.846;9.610;2023-04-28T04:23:51;9.30;99.90
16327;DHT22;34812;49.846;9.610;2023-04-28T04:24:52;9.30;99.90
16327;DHT22;34812;49.846;9.610;2023-04-28T04:25:55;9.40;99.90
16327;DHT22;34812;49.846;9.610;2023-04-28T04:26:56;9.30;99.90
16327;DHT22;34812;49.846;9.610;2023-04-28T04:28:05;9.30;99.90
16327;DHT22;34812;49.846;9.610;2023-04-28T04:29:05;9.40;99.90
16327;DHT22;34812;49.846;9.610;2023-04-28T04:30:08;9.30;99.90
16327;DHT22;34812;49.846;9.610;2023-04-28T04:31:12;9.40;99.90
16327;DHT22;34812;49.846;9.610;2023-04-28T04:32:14;9.40;99.90
16327;DHT22;34812;49.846;9.610;2023-04-28T04:33:16;9.30;99.90
16327;DHT22;34812;49.846;9.610;2023-04-28T04:34:19;9.30;99.90
16327;DHT22;34812;49.846;9.610;2023-04-28T04:35:20;9.30;99.90
16327;DHT22;34812;49.846;9.610;2023-04-28T04:36:22;9.30;99.90
16327;DHT22;34812;49.846;9.610;2023-04-28T04:37:24;9.30;99.90
16327;DHT22;34812;49.846;9.610;2023-04-28T04:38:36;9.30;99.90
16327;DHT22;34812;49.846;9.610;2023-04-28T04:39:49;9.30;99.90
16327;DHT22;34812;49.846;9.610;2023-04-28T04:40:51;9.30;99.90
16327;DHT22;34812;49.846;9.610;2023-04-28T04:41:53;9.30;99.90
16327;DHT22;34812;49.846;9.610;2023-04-28T04:43:17;9.40;99.90
16327;DHT22;34812;49.846;9.610;2023-04-28T04:44:22;9.40;99.90
16327;DHT22;34812;49.846;9.610;2023-04-28T04:45:26;9.40;99.90
16327;DHT22;34812;49.846;9.610;2023-04-28T04:46:28;9.40;99.90
16327;DHT22;34812;49.846;9.610;2023-04-28T04:47:30;9.40;99.90
16327;DHT22;34812;49.846;9.610;2023-04-28T04:48:32;9.40;99.90
16327;DHT22;34812;49.846;9.610;2023-04-28T04:49:34;9.40;99.90
16327;DHT22;34812;49.846;9.610;2023-04-28T04:50:35;9.40;99.90
16327;DHT22;34812;49.846;9.610;2023-04-28T04:51:38;9.50;99.90
16327;DHT22;34812;49.846;9.610;2023-04-28T04:52:40;9.40;99.90
16327;DHT22;34812;49.846;9.610;2023-04-28T04:53:42;9.40;99.90
16327;DHT22;34812;49.846;9.610;2023-04-28T04:54:43;9.50;99.90
16327;DHT22;34812;49.846;9.610;2023-04-28T04:55:45;9.50;99.90
16327;DHT22;34812;49.846;9.610;2023-04-28T04:56:46;9.40;99.90
16327;DHT22;34812;49.846;9.610;2023-04-28T04:57:54;9.40;99.90
16327;DHT22;34812;49.846;9.610;2023-04-28T04:59:17;9.40;99.90
16327;DHT22;34812;49.846;9.610;2023-04-28T05:00:29;9.40;99.90
16327;DHT22;34812;49.846;9.610;2023-04-28T05:01:32;9.50;99.90
16327;DHT22;34812;49.846;9.610;2023-04-28T05:02:33;9.50;99.90
16327;DHT22;34812;49.846;9.610;2023-04-28T05:03:35;9.40;99.90
16327;DHT22;34812;49.846;9.610;2023-04-28T05:04:37;9.50;99.90
16327;DHT22;34812;49.846;9.610;2023-04-28T05:05:39;9.50;99.90
16327;DHT22;34812;49.846;9.610;2023-04-28T05:06:55;9.50;99.90
16327;DHT22;34812;49.846;9.610;2023-04-28T05:07:56;9.50;99.90
16327;DHT22;34812;49.846;9.610;2023-04-28T05:08:58;9.50;99.90
16327;DHT22;34812;49.846;9.610;2023-04-28T05:10:00;9.50;99.90
16327;DHT22;34812;49.846;9.610;2023-04-28T05:11:00;9.50;99.90
16327;DHT22;34812;49.846;9.610;2023-04-28T05:12:03;9.50;99.90
16327;DHT22;34812;49.846;9.610;2023-04-28T05:13:04;9.50;99.90
16327;DHT22;34812;49.846;9.610;2023-04-28T05:14:06;9.50;99.90
16327;DHT22;34812;49.846;9.610;2023-04-28T05:15:07;9.50;99.90
16327;DHT22;34812;49.846;9.610;2023-04-28T05:16:13;9.50;99.90
16327;DHT22;34812;49.846;9.610;2023-04-28T05:17:23;9.50;99.90
16327;DHT22;34812;49.846;9.610;2023-04-28T05:18:25;9.40;99.90
16327;DHT22;34812;49.846;9.610;2023-04-28T05:19:26;9.40;99.90
16327;DHT22;34812;49.846;9.610;2023-04-28T05:20:28;9.40;99.90
16327;DHT22;34812;49.846;9.610;2023-04-28T05:21:29;9.50;99.90
16327;DHT22;34812;49.846;9.610;2023-04-28T05:22:32;9.50;99.90
16327;DHT22;34812;49.846;9.610;2023-04-28T05:23:33;9.50;99.90
16327;DHT22;34812;49.846;9.610;2023-04-28T05:24:35;9.50;99.90
16327;DHT22;34812;49.846;9.610;2023-04-28T05:25:36;9.50;99.90
16327;DHT22;34812;49.846;9.610;2023-04-28T05:26:38;9.50;99.90
16327;DHT22;34812;49.846;9.610;2023-04-28T05:27:42;9.50;99.90
16327;DHT22;34812;49.846;9.610;2023-04-28T05:28:44;9.50;99.90
16327;DHT22;34812;49.846;9.610;2023-04-28T05:29:45;9.50;99.90
16327;DHT22;34812;49.846;9.610;2023-04-28T05:30:47;9.50;99.90
16327;DHT22;34812;49.846;9.610;2023-04-28T05:31:49;9.50;99.90
16327;DHT22;34812;49.846;9.610;2023-04-28T05:32:53;9.60;99.90
16327;DHT22;34812;49.846;9.610;2023-04-28T05:33:53;9.60;99.90
16327;DHT22;34812;49.846;9.610;2023-04-28T05:34:55;9.60;99.90
16327;DHT22;34812;49.846;9.610;2023-04-28T05:35:56;9.60;99.90
16327;DHT22;34812;49.846;9.610;2023-04-28T05:36:58;9.60;99.90
16327;DHT22;34812;49.846;9.610;2023-04-28T05:38:02;9.60;99.90
16327;DHT22;34812;49.846;9.610;2023-04-28T05:39:03;9.60;99.90
16327;DHT22;34812;49.846;9.610;2023-04-28T05:40:06;9.60;99.90
16327;DHT22;34812;49.846;9.610;2023-04-28T05:41:09;9.60;99.90
16327;DHT22;34812;49.846;9.610;2023-04-28T05:42:11;9.70;99.90
16327;DHT22;34812;49.846;9.610;2023-04-28T05:43:12;9.70;99.90
16327;DHT22;34812;49.846;9.610;2023-04-28T05:44:14;9.80;99.90
16327;DHT22;34812;49.846;9.610;2023-04-28T05:45:15;9.80;99.90
16327;DHT22;34812;49.846;9.610;2023-04-28T05:46:17;9.80;99.90
16327;DHT22;34812;49.846;9.610;2023-04-28T05:47:18;9.90;99.90
16327;DHT22;34812;49.846;9.610;2023-04-28T05:48:22;9.90;99.90
16327;DHT22;34812;49.846;9.610;2023-04-28T05:49:23;10.00;99.90
16327;DHT22;34812;49.846;9.610;2023-04-28T05:50:25;10.00;99.90
16327;DHT22;34812;49.846;9.610;2023-04-28T05:51:26;10.00;99.90
16327;DHT22;34812;49.846;9.610;2023-04-28T05:52:27;10.10;99.90
16327;DHT22;34812;49.846;9.610;2023-04-28T05:53:28;10.10;99.90
16327;DHT22;34812;49.846;9.610;2023-04-28T05:54:31;10.10;99.90
16327;DHT22;34812;49.846;9.610;2023-04-28T05:55:34;10.10;99.90
16327;DHT22;34812;49.846;9.610;2023-04-28T05:56:36;10.10;99.90
16327;DHT22;34812;49.846;9.610;2023-04-28T05:57:37;10.10;99.90
16327;DHT22;34812;49.846;9.610;2023-04-28T05:58:40;10.00;99.90
16327;DHT22;34812;49.846;9.610;2023-04-28T05:59:41;9.90;99.90
16327;DHT22;34812;49.846;9.610;2023-04-28T06:00:43;9.90;99.90
16327;DHT22;34812;49.846;9.610;2023-04-28T06:01:44;9.90;99.90
16327;DHT22;34812;49.846;9.610;2023-04-28T06:02:46;9.80;99.90
16327;DHT22;34812;49.846;9.610;2023-04-28T06:03:48;9.80;99.90
16327;DHT22;34812;49.846;9.610;2023-04-28T06:04:50;9.80;99.90
16327;DHT22;34812;49.846;9.610;2023-04-28T06:05:51;9.70;99.90
16327;DHT22;34812;49.846;9.610;2023-04-28T06:06:53;9.70;99.90
16327;DHT22;34812;49.846;9.610;2023-04-28T06:07:54;9.70;99.90
16327;DHT22;34812;49.846;9.610;2023-04-28T06:08:56;9.70;99.90
16327;DHT22;34812;49.846;9.610;2023-04-28T06:09:57;9.70;99.90
16327;DHT22;34812;49.846;9.610;2023-04-28T06:10:59;9.70;99.90
16327;DHT22;34812;49.846;9.610;2023-04-28T06:11:59;9.70;99.90
16327;DHT22;34812;49.846;9.610;2023-04-28T06:13:01;9.80;99.90
16327;DHT22;34812;49.846;9.610;2023-04-28T06:14:04;9.80;99.90
16327;DHT22;34812;49.846;9.610;2023-04-28T06:15:06;9.80;99.90
16327;DHT22;34812;49.846;9.610;2023-04-28T06:16:07;9.80;99.90
16327;DHT22;34812;49.846;9.610;2023-04-28T06:17:09;9.80;99.90
16327;DHT22;34812;49.846;9.610;2023-04-28T06:18:10;9.70;99.90
16327;DHT22;34812;49.846;9.610;2023-04-28T06:19:13;9.70;99.90
16327;DHT22;34812;49.846;9.610;2023-04-28T06:20:15;9.70;99.90
16327;DHT22;34812;49.846;9.610;2023-04-28T06:21:17;9.70;99.90
16327;DHT22;34812;49.846;9.610;2023-04-28T06:22:19;9.70;99.90
16327;DHT22;34812;49.846;9.610;2023-04-28T06:23:21;9.70;99.90
16327;DHT22;34812;49.846;9.610;2023-04-28T06:24:23;9.70;99.90
16327;DHT22;34812;49.846;9.610;2023-04-28T06:25:27;9.70;99.90
16327;DHT22;34812;49.846;9.610;2023-04-28T06:26:28;9.60;99.90
16327;DHT22;34812;49.846;9.610;2023-04-28T06:27:30;9.60;99.90
16327;DHT22;34812;49.846;9.610;2023-04-28T06:28:32;9.60;99.90
16327;DHT22;34812;49.846;9.610;2023-04-28T06:29:34;9.50;99.90
16327;DHT22;34812;49.846;9.610;2023-04-28T06:30:35;9.50;99.90
16327;DHT22;34812;49.846;9.610;2023-04-28T06:31:37;9.50;99.90
16327;DHT22;34812;49.846;9.610;2023-04-28T06:32:38;9.50;99.90
16327;DHT22;34812;49.846;9.610;2023-04-28T06:33:40;9.40;99.90
16327;DHT22;34812;49.846;9.610;2023-04-28T06:34:42;9.40;99.90
16327;DHT22;34812;49.846;9.610;2023-04-28T06:35:44;9.40;99.90
16327;DHT22;34812;49.846;9.610;2023-04-28T06:36:45;9.30;99.90
16327;DHT22;34812;49.846;9.610;2023-04-28T06:37:47;9.30;99.90
16327;DHT22;34812;49.846;9.610;2023-04-28T06:38:49;9.30;99.90
16327;DHT22;34812;49.846;9.610;2023-04-28T06:39:50;9.30;99.90